Time;durP1;ratioP1;P1;durP2;ratioP2;P2;SDS_P1;SDS_P2;PMS_P1;PMS_P2;Temp;Humidity;BMP_temperature;BMP_pressure;BME280_temperature;BME280_humidity;BME280_pressure;Samples;Min_cycle;Max_cycle;Signal;HPM_P1;HPM_P2
2023/10/24 00:00:27;;;;;;;4.00;2.42;;;;;;;11.84;100.00;97604.59;4082052;28;20207;-46
2023/10/24 00:02:29;;;;;;;1.95;1.85;;;;;;;11.88;100.00;97606.47;4117681;28;20277;-44
2023/10/24 00:04:30;;;;;;;2.72;2.42;;;;;;;11.87;100.00;97604.84;4134494;28;20229;-44
2023/10/24 00:06:32;;;;;;;3.03;2.83;;;;;;;11.86;100.00;97619.66;4114833;28;20212;-45
2023/10/24 00:08:34;;;;;;;2.35;2.15;;;;;;;11.87;100.00;97624.03;4098293;28;20211;-44
2023/10/24 00:10:36;;;;;;;2.25;2.05;;;;;;;11.88;100.00;97628.41;4114817;28;20207;-44
2023/10/24 00:12:38;;;;;;;3.30;3.00;;;;;;;11.89;100.00;97627.31;4102201;28;20636;-45
2023/10/24 00:14:39;;;;;;;10.50;2.13;;;;;;;11.89;100.00;97624.56;4102393;28;20238;-44
2023/10/24 00:16:41;;;;;;;2.90;2.70;;;;;;;11.92;100.00;97629.47;4102678;28;20215;-44
2023/10/24 00:18:43;;;;;;;2.40;2.20;;;;;;;11.88;100.00;97628.41;4117029;28;20674;-45
2023/10/24 00:20:45;;;;;;;3.75;2.17;;;;;;;11.84;100.00;97624.56;4117526;28;20758;-45
2023/10/24 00:22:46;;;;;;;3.75;2.67;;;;;;;11.86;100.00;97622.41;4116246;28;20569;-43
2023/10/24 00:24:48;;;;;;;3.28;2.97;;;;;;;11.87;100.00;97626.78;4090145;28;20242;-44
2023/10/24 00:26:50;;;;;;;2.10;2.00;;;;;;;11.88;100.00;97622.94;4100317;28;20640;-44
2023/10/24 00:28:55;;;;;;;3.53;2.78;;;;;;;11.93;100.00;97636.63;4118277;28;20210;-44
2023/10/24 00:30:56;;;;;;;2.58;2.47;;;;;;;11.96;100.00;97625.06;4119650;28;20206;-45
2023/10/24 00:32:58;;;;;;;3.25;2.65;;;;;;;11.98;100.00;97622.88;4099942;28;20682;-45
2023/10/24 00:35:00;;;;;;;2.38;2.05;;;;;;;11.98;100.00;97611.91;4133563;28;20233;-44
2023/10/24 00:37:02;;;;;;;4.35;3.17;;;;;;;12.01;100.00;97611.34;4116501;28;20225;-44
2023/10/24 00:39:03;;;;;;;3.58;3.28;;;;;;;11.96;100.00;97603.16;4105160;28;20243;-44
2023/10/24 00:41:05;;;;;;;2.40;2.20;;;;;;;11.98;100.00;97600.13;4103679;28;20211;-44
2023/10/24 00:43:07;;;;;;;5.43;2.75;;;;;;;12.00;100.00;97604.25;4101470;28;20266;-45
2023/10/24 00:45:09;;;;;;;5.65;3.40;;;;;;;11.99;100.00;97610.81;4114634;28;20237;-44
2023/10/24 00:47:11;;;;;;;2.33;2.00;;;;;;;12.04;100.00;97613.53;4121419;28;20206;-45
2023/10/24 00:49:12;;;;;;;4.63;3.00;;;;;;;12.03;100.00;97600.91;4103439;28;20210;-45
2023/10/24 00:51:14;;;;;;;3.95;3.72;;;;;;;12.07;100.00;97588.28;4115748;28;20216;-45
2023/10/24 00:53:16;;;;;;;2.10;2.00;;;;;;;12.09;100.00;97580.59;4115968;28;20202;-45
2023/10/24 00:55:18;;;;;;;1.60;1.50;;;;;;;12.08;100.00;97584.44;4097653;28;20293;-44
2023/10/24 00:57:20;;;;;;;2.78;2.58;;;;;;;12.05;100.00;97590.47;4117766;28;20679;-44
2023/10/24 00:59:24;;;;;;;2.13;2.03;;;;;;;12.08;100.00;97592.69;4100207;28;20215;-44
2023/10/24 01:01:26;;;;;;;1.85;1.75;;;;;;;12.09;100.00;97605.28;4131839;28;20717;-45
2023/10/24 01:03:27;;;;;;;2.63;2.47;;;;;;;12.09;100.00;97588.81;4101676;28;20701;-45
2023/10/24 01:05:30;;;;;;;2.10;1.98;;;;;;;12.07;100.00;97587.47;4109060;28;20219;-44
2023/10/24 01:07:32;;;;;;;1.90;1.70;;;;;;;12.12;100.00;97585.50;4117294;28;20207;-45
2023/10/24 01:09:34;;;;;;;2.88;2.42;;;;;;;12.13;100.00;97595.41;4102291;28;20219;-45
2023/10/24 01:11:36;;;;;;;8.07;2.25;;;;;;;12.13;100.00;97600.03;4107622;28;20211;-44
2023/10/24 01:13:39;;;;;;;2.17;1.58;;;;;;;12.18;100.00;97595.34;4122357;28;20231;-45
2023/10/24 01:15:41;;;;;;;2.22;1.85;;;;;;;12.16;100.00;97597.56;4104030;28;20290;-45
2023/10/24 01:17:50;;;;;;;3.47;1.90;;;;;;;12.19;100.00;97593.44;4120172;28;20941;-45
2023/10/24 01:19:52;;;;;;;2.08;1.67;;;;;;;12.16;100.00;97596.75;4119216;28;20741;-45
2023/10/24 01:21:54;;;;;;;3.90;2.03;;;;;;;12.21;100.00;97588.47;4135695;28;20248;-45
2023/10/24 01:23:56;;;;;;;1.52;1.42;;;;;;;12.23;100.00;97576.13;4102874;28;20239;-46
2023/10/24 01:25:58;;;;;;;10.20;2.00;;;;;;;12.24;100.00;97566.78;4117990;28;20210;-45
2023/10/24 01:28:00;;;;;;;2.30;2.05;;;;;;;12.22;100.00;97560.78;4119376;28;20217;-45
2023/10/24 01:30:02;;;;;;;4.65;1.48;;;;;;;12.17;100.00;97562.75;4103132;28;20266;-45
2023/10/24 01:32:04;;;;;;;1.30;1.20;;;;;;;12.27;100.00;97568.16;4103029;28;20211;-45
2023/10/24 01:34:09;;;;;;;1.85;1.75;;;;;;;12.20;100.00;97573.13;4106450;28;20260;-45
2023/10/24 01:36:11;;;;;;;2.22;1.48;;;;;;;12.27;100.00;97568.97;4119922;28;20844;-45
2023/10/24 01:38:13;;;;;;;2.00;1.90;;;;;;;12.21;100.00;97563.78;4104420;28;20570;-45
2023/10/24 01:40:15;;;;;;;0.85;0.85;;;;;;;12.21;100.00;97561.88;4101300;28;20793;-45
2023/10/24 01:42:16;;;;;;;1.75;1.25;;;;;;;12.15;100.00;97562.19;4105030;28;20334;-45
2023/10/24 01:44:18;;;;;;;1.63;1.52;;;;;;;12.28;100.00;97570.63;4120052;28;20233;-46
2023/10/24 01:46:20;;;;;;;0.90;0.90;;;;;;;12.27;100.00;97568.97;4118457;28;20599;-44
2023/10/24 01:48:23;;;;;;;1.27;1.17;;;;;;;12.25;100.00;97556.66;4101762;28;20215;-45
2023/10/24 01:50:24;;;;;;;3.42;1.30;;;;;;;12.19;100.00;97542.16;4106323;28;20210;-45
2023/10/24 01:52:31;;;;;;;1.40;1.13;;;;;;;12.18;100.00;97539.69;4117901;28;20665;-45
2023/10/24 01:54:33;;;;;;;2.05;1.17;;;;;;;12.11;100.00;97539.19;4119614;28;20308;-45
2023/10/24 01:56:35;;;;;;;0.93;0.93;;;;;;;12.11;100.00;97545.47;4119201;28;20233;-47
2023/10/24 01:58:36;;;;;;;1.77;1.30;;;;;;;12.18;100.00;97535.00;4120339;28;20241;-45
2023/10/24 02:00:38;;;;;;;2.05;1.75;;;;;;;12.05;100.00;97532.91;4121004;28;20324;-45
2023/10/24 02:02:40;;;;;;;0.95;0.95;;;;;;;12.07;100.00;97544.44;4116280;28;20964;-46
2023/10/24 02:04:42;;;;;;;0.82;0.82;;;;;;;12.15;100.00;97549.31;4101118;28;20265;-45
2023/10/24 02:06:44;;;;;;;1.00;1.00;;;;;;;12.13;100.00;97559.75;4102096;28;20676;-45
2023/10/24 02:08:46;;;;;;;0.95;0.95;;;;;;;12.06;100.00;97559.25;4118442;28;20572;-45
2023/10/24 02:10:47;;;;;;;1.00;1.00;;;;;;;12.12;100.00;97557.28;4135978;28;20618;-46
2023/10/24 02:12:49;;;;;;;2.22;0.88;;;;;;;12.16;100.00;97569.34;4121017;28;20541;-45
2023/10/24 02:14:52;;;;;;;9.88;1.30;;;;;;;12.08;100.00;97565.25;4101321;28;20238;-46
2023/10/24 02:16:53;;;;;;;1.20;1.10;;;;;;;12.17;100.00;97573.72;4118637;28;20276;-45
2023/10/24 02:18:55;;;;;;;1.05;1.02;;;;;;;12.20;100.00;97573.97;4119133;28;20353;-45
2023/10/24 02:20:57;;;;;;;1.50;1.40;;;;;;;12.09;100.00;97586.09;4084700;28;20254;-45
2023/10/24 02:22:58;;;;;;;2.53;1.00;;;;;;;12.12;100.00;97585.50;4117959;28;20218;-46
2023/10/24 02:25:00;;;;;;;1.98;1.85;;;;;;;12.13;100.00;97584.44;4135010;28;20261;-44
2023/10/24 02:27:02;;;;;;;1.30;1.23;;;;;;;12.08;100.00;97580.88;4118296;28;20210;-45
2023/10/24 02:29:04;;;;;;;1.38;1.27;;;;;;;12.06;100.00;97580.34;4116260;28;20671;-45
2023/10/24 02:31:05;;;;;;;1.13;1.13;;;;;;;12.04;100.00;97588.84;4116441;28;20218;-45
2023/10/24 02:33:07;;;;;;;0.98;0.93;;;;;;;12.03;100.00;97591.88;4118326;28;20221;-45
2023/10/24 02:35:09;;;;;;;1.02;1.02;;;;;;;12.05;100.00;97590.47;4102726;28;20281;-45
2023/10/24 02:37:11;;;;;;;4.07;1.10;;;;;;;12.00;100.00;97593.28;4134659;28;20564;-45
2023/10/24 02:39:13;;;;;;;1.27;1.20;;;;;;;12.07;100.00;97593.78;4100140;28;20723;-45
2023/10/24 02:41:14;;;;;;;3.25;1.40;;;;;;;11.98;100.00;97595.44;4121361;28;20776;-46
2023/10/24 02:43:16;;;;;;;1.52;1.48;;;;;;;12.06;100.00;97596.78;4106611;28;20210;-45
2023/10/24 02:45:18;;;;;;;1.52;1.00;;;;;;;11.99;100.00;97585.31;4107901;28;20777;-45
2023/10/24 02:47:20;;;;;;;0.90;0.90;;;;;;;12.07;100.00;97577.31;4107853;28;20697;-45
2023/10/24 02:49:22;;;;;;;0.75;0.75;;;;;;;12.02;100.00;97579.25;4107594;28;20573;-46
2023/10/24 02:51:23;;;;;;;0.90;0.90;;;;;;;11.96;100.00;97585.91;4133545;28;20295;-45
2023/10/24 02:53:25;;;;;;;1.10;1.05;;;;;;;11.97;100.00;97582.84;4105547;28;20211;-46
2023/10/24 02:55:27;;;;;;;1.00;1.00;;;;;;;11.95;100.00;97574.09;4132750;28;20221;-45
2023/10/24 02:57:31;;;;;;;0.85;0.85;;;;;;;11.97;100.00;97574.63;4100933;28;20357;-46
2023/10/24 02:59:32;;;;;;;2.83;1.35;;;;;;;11.97;100.00;97577.38;4118495;28;20655;-44
2023/10/24 03:01:35;;;;;;;1.17;1.10;;;;;;;11.91;100.00;97578.50;4101693;28;20740;-45
2023/10/24 03:03:37;;;;;;;1.23;0.90;;;;;;;12.04;100.00;97577.88;4134230;28;20295;-46
2023/10/24 03:05:38;;;;;;;1.85;1.63;;;;;;;11.98;100.00;97579.00;4119302;28;20253;-45
2023/10/24 03:07:40;;;;;;;2.55;1.17;;;;;;;11.87;100.00;97582.91;4117695;28;21219;-45
2023/10/24 03:09:42;;;;;;;1.08;1.00;;;;;;;11.91;100.00;97588.66;4119814;28;20613;-45
2023/10/24 03:11:44;;;;;;;1.52;1.35;;;;;;;12.01;100.00;97589.41;4102278;28;20647;-45
2023/10/24 03:13:46;;;;;;;2.65;1.45;;;;;;;11.98;100.00;97589.97;4116701;28;20232;-45
2023/10/24 03:15:48;;;;;;;1.40;1.25;;;;;;;11.94;100.00;97582.59;4119726;28;20238;-45
2023/10/24 03:17:49;;;;;;;1.23;1.23;;;;;;;11.99;100.00;97586.16;4100454;28;20215;-45
2023/10/24 03:19:52;;;;;;;1.33;1.23;;;;;;;11.90;100.00;97584.28;4101705;28;20226;-46
2023/10/24 03:21:53;;;;;;;0.70;0.70;;;;;;;11.94;100.00;97588.91;4107010;28;20214;-45
2023/10/24 03:23:55;;;;;;;1.23;1.13;;;;;;;11.99;100.00;97580.66;4119375;28;20272;-46
2023/10/24 03:25:57;;;;;;;0.90;0.80;;;;;;;11.95;100.00;97579.56;4118406;28;20213;-46
2023/10/24 03:27:59;;;;;;;0.90;0.82;;;;;;;12.04;100.00;97566.91;4106082;28;20219;-45
2023/10/24 03:30:00;;;;;;;2.30;2.20;;;;;;;12.00;100.00;97571.34;4115872;28;20273;-46
2023/10/24 03:32:03;;;;;;;0.80;0.80;;;;;;;11.97;100.00;97576.56;4117054;28;20888;-46
2023/10/24 03:34:06;;;;;;;1.75;1.13;;;;;;;11.94;100.00;97572.47;4100061;28;20237;-44
2023/10/24 03:36:14;;;;;;;0.80;0.80;;;;;;;11.88;100.00;97579.06;4117262;28;20328;-45
2023/10/24 03:38:19;;;;;;;1.90;1.48;;;;;;;11.97;100.00;97582.84;4133470;28;20267;-45
2023/10/24 03:40:23;;;;;;;4.07;1.58;;;;;;;11.96;100.00;97567.50;4134268;28;20210;-45
2023/10/24 03:42:24;;;;;;;1.13;1.13;;;;;;;11.98;100.00;97561.75;4100256;28;20214;-46
2023/10/24 03:44:26;;;;;;;0.70;0.70;;;;;;;11.92;100.00;97565.63;4134482;28;20241;-45
2023/10/24 03:46:28;;;;;;;1.20;1.20;;;;;;;11.93;100.00;97570.81;4116078;28;20214;-45
2023/10/24 03:48:30;;;;;;;1.60;1.02;;;;;;;11.87;100.00;97566.47;4101950;28;20213;-45
2023/10/24 03:50:36;;;;;;;1.10;1.10;;;;;;;11.92;100.00;97569.16;4102041;28;20274;-45
2023/10/24 03:52:38;;;;;;;1.20;1.10;;;;;;;11.87;100.00;97576.59;4117212;28;20206;-45
2023/10/24 03:54:40;;;;;;;0.80;0.80;;;;;;;11.85;100.00;97585.09;4119317;28;21300;-45
2023/10/24 03:56:42;;;;;;;1.35;1.02;;;;;;;11.88;100.00;97581.81;4101046;28;20231;-45
2023/10/24 03:58:44;;;;;;;1.20;0.93;;;;;;;11.86;100.00;97581.28;4135306;28;20702;-45
2023/10/24 04:00:46;;;;;;;0.80;0.80;;;;;;;11.83;100.00;97581.03;4118084;28;20258;-46
2023/10/24 04:02:50;;;;;;;1.67;1.58;;;;;;;11.83;100.00;97579.06;4102927;28;20219;-45
2023/10/24 04:04:53;;;;;;;0.80;0.80;;;;;;;11.78;100.00;97579.09;4118093;28;20757;-46
2023/10/24 04:06:55;;;;;;;0.93;0.93;;;;;;;11.79;100.00;97569.81;4120524;28;20245;-46
2023/10/24 04:09:00;;;;;;;1.77;1.58;;;;;;;11.78;100.00;97570.88;4101585;28;20222;-46
2023/10/24 04:11:03;;;;;;;0.73;0.73;;;;;;;11.73;100.00;97570.91;4116328;28;20206;-46
2023/10/24 04:13:04;;;;;;;1.20;1.10;;;;;;;11.75;100.00;97574.19;4100777;28;20215;-45
2023/10/24 04:15:07;;;;;;;0.82;0.82;;;;;;;11.74;100.00;97572.56;4100386;28;20342;-44
2023/10/24 04:17:09;;;;;;;0.85;0.85;;;;;;;11.82;100.00;97580.19;4132406;28;20233;-45
2023/10/24 04:19:12;;;;;;;1.40;1.30;;;;;;;11.70;100.00;97571.47;4117661;28;20224;-45
2023/10/24 04:21:15;;;;;;;1.63;1.50;;;;;;;11.71;100.00;97572.28;4117267;28;20206;-45
2023/10/24 04:23:17;;;;;;;0.60;0.60;;;;;;;11.69;100.00;97575.31;4101686;28;20741;-45
2023/10/24 04:25:18;;;;;;;0.85;0.85;;;;;;;11.67;100.00;97577.50;4105979;28;20226;-46
2023/10/24 04:27:20;;;;;;;1.08;1.08;;;;;;;11.68;100.00;97570.09;4102274;28;20241;-45
2023/10/24 04:29:37;;;;;;;1.30;0.82;;;;;;;11.64;100.00;97578.06;4090524;28;20218;-45
2023/10/24 04:31:39;;;;;;;0.73;0.73;;;;;;;11.67;100.00;97577.50;4100060;28;20777;-45
2023/10/24 04:33:41;;;;;;;0.80;0.80;;;;;;;11.67;100.00;97566.56;4116416;28;20313;-46
2023/10/24 04:35:46;;;;;;;0.60;0.60;;;;;;;11.68;100.00;97572.84;4103132;28;20207;-46
2023/10/24 04:37:47;;;;;;;0.93;0.93;;;;;;;11.75;100.00;97562.38;4103552;28;20221;-45
2023/10/24 04:39:49;;;;;;;0.80;0.80;;;;;;;11.72;100.00;97561.03;4100497;28;20214;-45
2023/10/24 04:41:51;;;;;;;1.73;1.13;;;;;;;11.67;100.00;97555.59;4101111;28;20207;-45
2023/10/24 04:43:53;;;;;;;0.80;0.80;;;;;;;11.65;100.00;97552.28;4101342;28;20238;-45
2023/10/24 04:45:55;;;;;;;3.90;0.82;;;;;;;11.65;100.00;97543.25;4118975;28;21052;-45
2023/10/24 04:47:57;;;;;;;1.02;1.00;;;;;;;11.63;100.00;97549.03;4105869;28;20243;-45
2023/10/24 04:49:58;;;;;;;1.08;1.08;;;;;;;11.60;100.00;97530.41;4106689;28;20676;-45
2023/10/24 04:52:00;;;;;;;1.25;1.15;;;;;;;11.57;100.00;97528.19;4087659;28;20218;-46
2023/10/24 04:54:02;;;;;;;0.90;0.90;;;;;;;11.59;100.00;97531.53;4118986;28;20296;-45
2023/10/24 04:56:04;;;;;;;0.60;0.60;;;;;;;11.60;100.00;97526.84;4086436;28;20220;-46
2023/10/24 04:58:06;;;;;;;2.15;1.02;;;;;;;11.58;100.00;97529.84;4120508;28;20684;-47
2023/10/24 05:00:12;;;;;;;0.70;0.70;;;;;;;11.59;100.00;97526.03;4120431;28;20292;-45
2023/10/24 05:02:14;;;;;;;0.80;0.80;;;;;;;11.66;100.00;97532.03;4103858;28;20230;-45
2023/10/24 05:04:15;;;;;;;1.42;0.98;;;;;;;11.69;100.00;97531.47;4105731;28;20234;-46
2023/10/24 05:06:17;;;;;;;0.60;0.60;;;;;;;11.61;100.00;97523.00;4104532;28;20333;-45
2023/10/24 05:08:19;;;;;;;1.48;1.20;;;;;;;11.56;100.00;97523.81;4103207;28;20229;-45
2023/10/24 05:10:20;;;;;;;1.13;1.02;;;;;;;11.54;100.00;97517.81;4105770;28;20214;-45
2023/10/24 05:12:22;;;;;;;0.80;0.80;;;;;;;11.55;100.00;97510.38;4104471;28;20211;-46
2023/10/24 05:14:24;;;;;;;1.02;1.02;;;;;;;11.55;100.00;97503.00;4117523;28;20634;-45
2023/10/24 05:16:26;;;;;;;1.55;1.45;;;;;;;11.53;100.00;97497.00;4133374;28;20225;-45
2023/10/24 05:18:28;;;;;;;0.63;0.63;;;;;;;11.65;100.00;97497.47;4103955;28;20767;-45
2023/10/24 05:20:30;;;;;;;1.10;0.95;;;;;;;11.66;100.00;97496.41;4121642;28;20723;-46
2023/10/24 05:22:31;;;;;;;0.95;0.95;;;;;;;11.58;100.00;97491.50;4136542;28;20660;-45
2023/10/24 05:24:33;;;;;;;1.27;1.17;;;;;;;11.53;100.00;97497.00;4136676;28;20235;-45
2023/10/24 05:26:35;;;;;;;1.25;1.25;;;;;;;11.53;100.00;97510.69;4102559;28;20262;-46
2023/10/24 05:28:37;;;;;;;0.70;0.70;;;;;;;11.58;100.00;97507.13;4135434;28;20213;-45
2023/10/24 05:30:39;;;;;;;2.30;1.30;;;;;;;11.54;100.00;97512.31;4104272;28;20773;-44
2023/10/24 05:32:41;;;;;;;0.70;0.70;;;;;;;11.53;100.00;97516.16;4104220;28;20696;-45
2023/10/24 05:34:43;;;;;;;1.00;1.00;;;;;;;11.53;100.00;97520.81;4123488;28;20281;-46
2023/10/24 05:36:44;;;;;;;1.13;1.13;;;;;;;11.56;100.00;97523.00;4120791;28;20230;-45
2023/10/24 05:38:49;;;;;;;0.95;0.77;;;;;;;11.66;100.00;97534.78;4117712;28;20828;-45
2023/10/24 05:40:50;;;;;;;3.25;1.10;;;;;;;11.55;100.00;97540.53;4116429;28;20268;-45
2023/10/24 05:42:52;;;;;;;1.02;0.90;;;;;;;11.56;100.00;97543.00;4099339;28;20215;-45
2023/10/24 05:44:54;;;;;;;1.27;1.17;;;;;;;11.58;100.00;97550.97;4105113;28;20281;-44
2023/10/24 05:46:56;;;;;;;0.73;0.73;;;;;;;11.52;100.00;97547.38;4120808;28;20261;-46
2023/10/24 05:48:58;;;;;;;0.93;0.93;;;;;;;11.53;100.00;97548.22;4117741;28;20210;-45
2023/10/24 05:51:00;;;;;;;1.00;1.00;;;;;;;11.47;100.00;97550.16;4102228;28;20222;-45
2023/10/24 05:53:02;;;;;;;1.30;1.20;;;;;;;11.50;100.00;97538.63;4118703;28;20214;-46
2023/10/24 05:55:04;;;;;;;1.00;1.00;;;;;;;11.50;100.00;97538.63;4116945;28;20266;-44
2023/10/24 05:57:06;;;;;;;4.60;1.33;;;;;;;11.44;100.00;97539.75;4120220;28;20237;-45
2023/10/24 05:59:07;;;;;;;1.48;1.30;;;;;;;11.49;100.00;97545.22;4118674;28;20219;-45
2023/10/24 06:01:09;;;;;;;0.88;0.88;;;;;;;11.41;100.00;97545.78;4118093;28;20210;-45
2023/10/24 06:03:11;;;;;;;1.05;1.02;;;;;;;11.45;100.00;97557.81;4117444;28;20734;-45
2023/10/24 06:05:13;;;;;;;5.22;1.58;;;;;;;11.45;100.00;97552.34;4133814;28;21111;-45
2023/10/24 06:07:15;;;;;;;0.90;0.90;;;;;;;11.43;100.00;97549.06;4108812;28;20212;-45
2023/10/24 06:09:17;;;;;;;2.83;2.40;;;;;;;11.52;100.00;97543.84;4136933;28;20295;-45
2023/10/24 06:11:19;;;;;;;1.45;1.38;;;;;;;11.47;100.00;97539.19;4133541;28;20216;-45
2023/10/24 06:13:21;;;;;;;2.03;1.92;;;;;;;11.54;100.00;97541.63;4087572;28;20212;-46
2023/10/24 06:15:23;;;;;;;1.27;1.17;;;;;;;11.45;100.00;97530.41;4136166;28;20214;-45
2023/10/24 06:17:24;;;;;;;0.93;0.93;;;;;;;11.51;100.00;97533.97;4119778;28;20695;-45
2023/10/24 06:19:26;;;;;;;2.95;1.30;;;;;;;11.48;100.00;97529.88;4112254;28;20257;-44
2023/10/24 06:21:28;;;;;;;1.40;1.30;;;;;;;11.55;100.00;97535.88;4120404;28;20209;-45
2023/10/24 06:23:31;;;;;;;1.13;1.13;;;;;;;11.52;100.00;97536.41;4101036;28;20299;-45
2023/10/24 06:25:39;;;;;;;1.02;0.95;;;;;;;11.47;100.00;97539.19;4117387;28;20206;-46
2023/10/24 06:27:41;;;;;;;1.30;1.20;;;;;;;11.56;100.00;97536.72;4135659;28;20672;-45
2023/10/24 06:29:43;;;;;;;1.58;1.40;;;;;;;11.52;100.00;97530.94;4113036;28;20214;-45
2023/10/24 06:31:45;;;;;;;3.60;1.33;;;;;;;11.52;100.00;97535.63;4098225;28;20211;-45
2023/10/24 06:33:47;;;;;;;1.05;1.05;;;;;;;11.51;100.00;97533.97;4117083;28;20237;-45
2023/10/24 06:35:48;;;;;;;0.90;0.90;;;;;;;11.58;100.00;97529.84;4102521;28;20261;-45
2023/10/24 06:37:51;;;;;;;1.65;1.55;;;;;;;11.53;100.00;97538.09;4104277;28;21622;-45
2023/10/24 06:39:53;;;;;;;9.35;2.78;;;;;;;11.53;100.00;97542.72;4083386;28;20219;-45
2023/10/24 06:41:55;;;;;;;1.65;1.55;;;;;;;11.53;100.00;97538.09;4117293;28;20885;-46
2023/10/24 06:43:57;;;;;;;1.40;1.30;;;;;;;11.55;100.00;97540.53;4115847;28;20229;-46
2023/10/24 06:46:02;;;;;;;1.00;1.00;;;;;;;11.62;100.00;97541.91;4120267;28;20550;-44
2023/10/24 06:48:06;;;;;;;1.75;1.65;;;;;;;11.61;100.00;97534.78;4133929;28;20251;-45
2023/10/24 06:50:08;;;;;;;3.33;1.83;;;;;;;11.67;100.00;97530.94;4101923;28;20324;-45
2023/10/24 06:52:10;;;;;;;1.10;1.00;;;;;;;11.63;100.00;97527.09;4106480;28;20210;-44
2023/10/24 06:54:11;;;;;;;1.63;1.52;;;;;;;11.66;100.00;97531.19;4116410;28;20814;-46
2023/10/24 06:56:13;;;;;;;0.85;0.85;;;;;;;11.65;100.00;97529.56;4100239;28;20277;-45
2023/10/24 06:58:15;;;;;;;2.03;1.63;;;;;;;11.63;100.00;97532.56;4116436;28;20237;-45
2023/10/24 07:00:17;;;;;;;14.07;2.55;;;;;;;11.66;100.00;97543.00;4131430;28;20245;-45
2023/10/24 07:02:19;;;;;;;2.00;1.58;;;;;;;11.64;100.00;97534.22;4117260;28;20213;-45
2023/10/24 07:04:21;;;;;;;1.52;1.45;;;;;;;11.68;100.00;97532.56;4116922;28;20740;-45
2023/10/24 07:06:23;;;;;;;5.93;1.08;;;;;;;11.71;100.00;97533.94;4099952;28;20249;-45
2023/10/24 07:08:26;;;;;;;1.83;1.70;;;;;;;11.71;100.00;97542.94;4104551;28;20241;-45
2023/10/24 07:10:33;;;;;;;1.52;1.48;;;;;;;11.70;100.00;97541.31;4102481;28;20662;-44
2023/10/24 07:12:35;;;;;;;2.63;1.35;;;;;;;11.65;100.00;97541.31;4116378;28;20253;-45
2023/10/24 07:14:37;;;;;;;1.00;0.90;;;;;;;11.68;100.00;97539.94;4083311;28;20677;-45
2023/10/24 07:16:39;;;;;;;1.30;1.20;;;;;;;11.69;100.00;97536.09;4100809;28;20262;-46
2023/10/24 07:18:40;;;;;;;1.63;1.27;;;;;;;11.71;100.00;97539.41;4103271;28;20214;-45
2023/10/24 07:20:43;;;;;;;1.00;0.98;;;;;;;11.71;100.00;97542.94;4137465;28;20218;-45
2023/10/24 07:22:48;;;;;;;1.00;1.00;;;;;;;11.69;100.00;97552.53;4100268;28;20290;-45
2023/10/24 07:24:50;;;;;;;1.05;0.98;;;;;;;11.71;100.00;97551.16;4119638;28;20231;-45
2023/10/24 07:26:52;;;;;;;2.22;1.02;;;;;;;11.72;100.00;97558.28;4135468;28;21482;-45
2023/10/24 07:29:00;;;;;;;0.93;0.93;;;;;;;11.77;100.00;97558.28;4116293;28;20289;-45
2023/10/24 07:31:03;;;;;;;1.10;0.90;;;;;;;11.72;100.00;97552.81;4119595;28;20197;-45
2023/10/24 07:33:05;;;;;;;1.50;1.40;;;;;;;11.73;100.00;97553.63;4099989;28;20215;-45
2023/10/24 07:35:08;;;;;;;1.35;1.35;;;;;;;11.73;100.00;97549.00;4115039;28;20234;-45
2023/10/24 07:37:10;;;;;;;1.02;1.02;;;;;;;11.76;100.00;97550.34;4120894;28;20644;-45
2023/10/24 07:39:16;;;;;;;0.85;0.85;;;;;;;11.78;100.00;97557.16;4105296;28;20215;-45
2023/10/24 07:41:20;;;;;;;1.25;1.10;;;;;;;11.82;100.00;97551.94;4136741;28;20296;-45
2023/10/24 07:43:22;;;;;;;0.85;0.85;;;;;;;11.77;100.00;97544.56;4118445;28;20265;-44
2023/10/24 07:45:24;;;;;;;1.30;0.95;;;;;;;11.80;100.00;97543.19;4116398;28;20214;-45
2023/10/24 07:47:27;;;;;;;2.45;1.35;;;;;;;11.80;100.00;97538.53;4101374;28;20285;-45
2023/10/24 07:49:35;;;;;;;1.10;0.98;;;;;;;11.81;100.00;97555.78;4102764;28;20206;-45
2023/10/24 07:51:37;;;;;;;1.30;1.05;;;;;;;11.83;100.00;97559.91;4134723;28;20861;-45
2023/10/24 07:53:39;;;;;;;0.88;0.88;;;;;;;11.89;100.00;97567.00;4099969;28;20216;-45
2023/10/24 07:55:41;;;;;;;9.88;1.65;;;;;;;11.87;100.00;97565.63;4105627;28;20672;-45
2023/10/24 07:57:43;;;;;;;0.82;0.82;;;;;;;11.86;100.00;97559.34;4102632;28;20266;-45
2023/10/24 07:59:45;;;;;;;1.15;1.10;;;;;;;11.85;100.00;97562.34;4105832;28;20272;-46
2023/10/24 08:01:47;;;;;;;3.47;1.20;;;;;;;11.87;100.00;97566.47;4102055;28;20247;-45
2023/10/24 08:03:49;;;;;;;1.13;1.02;;;;;;;11.87;100.00;97563.72;4121367;28;20261;-46
2023/10/24 08:05:52;;;;;;;2.00;1.80;;;;;;;11.88;100.00;97561.78;4118436;28;20217;-46
2023/10/24 08:07:54;;;;;;;1.15;1.05;;;;;;;11.88;100.00;97567.25;4107187;28;20207;-46
2023/10/24 08:09:59;;;;;;;0.70;0.70;;;;;;;11.91;100.00;97562.03;4112891;28;20218;-45
2023/10/24 08:12:00;;;;;;;0.70;0.70;;;;;;;11.93;100.00;97575.47;4104409;28;20680;-45
2023/10/24 08:14:02;;;;;;;0.70;0.70;;;;;;;11.99;100.00;97575.19;4118744;28;20233;-46
2023/10/24 08:16:05;;;;;;;1.13;1.02;;;;;;;12.01;100.00;97572.97;4100567;28;20654;-45
2023/10/24 08:18:07;;;;;;;1.05;1.05;;;;;;;11.97;100.00;97580.09;4118390;28;20315;-45
2023/10/24 08:20:09;;;;;;;0.90;0.90;;;;;;;11.99;100.00;97580.66;4106779;28;20529;-45
2023/10/24 08:22:11;;;;;;;1.27;1.17;;;;;;;11.96;100.00;97578.47;4105018;28;20752;-45
2023/10/24 08:24:13;;;;;;;1.25;1.15;;;;;;;12.04;100.00;97583.34;4105132;28;20265;-46
2023/10/24 08:26:16;;;;;;;0.80;0.80;;;;;;;12.00;100.00;97579.56;4104022;28;20290;-45
2023/10/24 08:28:17;;;;;;;1.33;1.23;;;;;;;11.96;100.00;97581.22;4118115;28;20213;-46
2023/10/24 08:30:19;;;;;;;1.42;0.98;;;;;;;12.03;100.00;97580.91;4133068;28;20214;-45
2023/10/24 08:32:21;;;;;;;1.05;0.98;;;;;;;12.01;100.00;97586.69;4103743;28;20230;-45
2023/10/24 08:34:23;;;;;;;0.65;0.65;;;;;;;12.01;100.00;97583.94;4100666;28;20657;-46
2023/10/24 08:36:24;;;;;;;1.30;1.20;;;;;;;12.02;100.00;97580.09;4119327;28;20207;-45
2023/10/24 08:38:26;;;;;;;1.05;1.05;;;;;;;12.05;100.00;97574.03;4120311;28;20233;-45
2023/10/24 08:40:28;;;;;;;0.82;0.82;;;;;;;12.05;100.00;97568.53;4104452;28;20705;-45
2023/10/24 08:42:30;;;;;;;0.88;0.88;;;;;;;12.05;100.00;97560.31;4100654;28;20641;-46
2023/10/24 08:44:33;;;;;;;2.45;1.30;;;;;;;12.08;100.00;97559.78;4103016;28;20282;-45
2023/10/24 08:46:35;;;;;;;0.70;0.70;;;;;;;12.10;100.00;97564.97;4101496;28;20207;-45
2023/10/24 08:48:37;;;;;;;1.92;1.15;;;;;;;12.12;100.00;97558.06;4105310;28;20878;-45
2023/10/24 08:50:42;;;;;;;1.00;0.85;;;;;;;12.06;100.00;97542.78;4118033;28;20214;-45
2023/10/24 08:52:44;;;;;;;2.25;1.48;;;;;;;12.14;100.00;97550.41;4103443;28;20206;-46
2023/10/24 08:54:46;;;;;;;0.82;0.82;;;;;;;12.08;100.00;97546.06;4118565;28;20261;-45
2023/10/24 08:56:51;;;;;;;1.02;0.82;;;;;;;12.16;100.00;97536.44;4101746;28;20866;-45
2023/10/24 08:58:54;;;;;;;1.63;1.52;;;;;;;12.12;100.00;97535.34;4117859;28;20243;-45
2023/10/24 09:00:55;;;;;;;1.73;1.55;;;;;;;12.16;100.00;97537.22;4117965;28;20250;-45
2023/10/24 09:02:57;;;;;;;1.20;0.93;;;;;;;12.19;100.00;97541.31;4135693;28;20210;-45
2023/10/24 09:05:00;;;;;;;1.42;1.30;;;;;;;12.19;100.00;97550.38;4118624;28;20241;-45
2023/10/24 09:07:02;;;;;;;0.70;0.70;;;;;;;12.23;100.00;97545.97;4101757;28;20809;-45
2023/10/24 09:09:04;;;;;;;1.15;1.15;;;;;;;12.22;100.00;97547.06;4118697;28;20626;-45
2023/10/24 09:11:06;;;;;;;1.17;1.08;;;;;;;12.22;100.00;97558.03;4139011;28;20743;-45
2023/10/24 09:13:08;;;;;;;1.75;1.65;;;;;;;12.31;100.00;97542.59;4119466;28;20250;-45
2023/10/24 09:15:10;;;;;;;0.80;0.80;;;;;;;12.36;100.00;97539.84;4101517;28;20230;-45
2023/10/24 09:17:14;;;;;;;1.05;1.05;;;;;;;12.38;100.00;97534.88;4138299;28;20433;-46
2023/10/24 09:19:16;;;;;;;1.00;0.90;;;;;;;12.37;100.00;97535.97;4134443;28;20256;-45
2023/10/24 09:21:20;;;;;;;2.78;1.58;;;;;;;12.45;100.00;97529.88;4117182;28;20341;-46
2023/10/24 09:23:22;;;;;;;0.90;0.90;;;;;;;12.37;100.00;97527.75;4100250;28;20640;-46
2023/10/24 09:25:24;;;;;;;1.25;1.02;;;;;;;12.43;100.00;97526.59;4106069;28;22223;-44
2023/10/24 09:27:29;;;;;;;1.25;1.15;;;;;;;12.41;100.00;97517.84;4104729;28;20325;-45